Aviation Digital Data Service (ADDS)

Output produced by TAFs form (2027 UTC 20 July 2017)
found at http://www.aviationweather.gov/adds/tafs/
 
Forecast for: RJOK (KOCHI AIRPORT , JP)
Text: TAF RJOK 201705Z 2018/2200 34006KT 9999 FEW020 BKN050
Forecast period: 1800 to 2200 UTC 20 July 2017
Forecast type: FROM: standard forecast or significant change
Winds: from the NNW (340 degrees) at 7 MPH (6 knots; 3.1 m/s)
Visibility: 6 or more miles (10+ km)
Ceiling: 5000 feet AGL
Clouds: few clouds at 2000 feet AGL
broken clouds at 5000 feet AGL
Weather: no significant weather forecast for this period
Text: BECMG 2022/2100 16010KT
Forecast period: 2200 UTC 20 July 2017 to 0900 UTC 21 July 2017
Forecast type: BECOMING: Conditions expected to become as follows by 0000 UTC 21 July 2017
Winds: from the SSE (160 degrees) at 12 MPH (10 knots; 5.2 m/s)
Visibility: 6 or more miles (10+ km)
Ceiling: 5000 feet AGL
Clouds: few clouds at 2000 feet AGL
broken clouds at 5000 feet AGL
Weather: no significant weather forecast for this period
Text: BECMG 2109/2112 35005KT
Forecast period: 0900 UTC 21 July 2017 to 0000 UTC 22 July 2017
Forecast type: BECOMING: Conditions expected to become as follows by 1200 UTC 21 July 2017
Winds: from the N (350 degrees) at 6 MPH (5 knots; 2.6 m/s)
Visibility: 6 or more miles (10+ km)
Ceiling: 5000 feet AGL
Clouds: few clouds at 2000 feet AGL
broken clouds at 5000 feet AGL
Weather: no significant weather forecast for this period